createdAt,value
2022-10-08T00:00:26.255Z,10.50
2022-10-08T00:02:55.305Z,10.48
2022-10-08T00:05:24.364Z,10.25
2022-10-08T00:07:54.045Z,10.40
2022-10-08T00:10:23.060Z,11.13
2022-10-08T00:12:52.090Z,11.25
2022-10-08T00:15:21.139Z,11.30
2022-10-08T00:17:51.587Z,10.52
2022-10-08T00:20:21.843Z,10.98
2022-10-08T00:22:51.088Z,10.10
2022-10-08T00:25:20.116Z,9.82
2022-10-08T00:27:49.095Z,11.13
2022-10-08T00:30:18.216Z,11.10
2022-10-08T00:32:48.096Z,10.60
2022-10-08T00:35:18.853Z,10.70
2022-10-08T00:37:47.888Z,11.15
2022-10-08T00:40:17.022Z,11.60
2022-10-08T00:42:46.270Z,11.52
2022-10-08T00:45:15.787Z,10.45
2022-10-08T00:47:48.296Z,10.35
2022-10-08T00:50:23.686Z,10.95
2022-10-08T00:52:58.077Z,10.52
2022-10-08T00:55:28.289Z,10.77
2022-10-08T00:58:01.682Z,11.27
2022-10-08T01:00:33.215Z,11.85
2022-10-08T01:03:03.825Z,11.38
2022-10-08T01:05:49.127Z,11.73
2022-10-08T01:08:29.736Z,12.93
2022-10-08T01:11:09.248Z,13.82
2022-10-08T01:13:46.108Z,15.10
2022-10-08T01:16:29.418Z,16.92
2022-10-08T01:19:14.883Z,17.42
2022-10-08T01:21:57.637Z,17.77
2022-10-08T01:24:58.395Z,15.93
2022-10-08T01:27:35.887Z,16.35
2022-10-08T01:32:44.284Z,15.32
2022-10-08T01:35:20.229Z,15.73
2022-10-08T01:37:56.034Z,17.77
2022-10-08T01:40:30.887Z,16.40
2022-10-08T01:43:03.716Z,17.00
2022-10-08T01:45:38.476Z,16.23
2022-10-08T01:48:14.923Z,16.95
2022-10-08T01:50:53.581Z,17.67
2022-10-08T01:53:26.943Z,17.63
2022-10-08T01:55:58.267Z,17.88
2022-10-08T01:58:35.139Z,16.55
2022-10-08T02:01:11.941Z,18.27
2022-10-08T02:04:01.285Z,17.52
2022-10-08T02:06:34.727Z,15.65
2022-10-08T02:09:04.247Z,14.90
2022-10-08T02:11:35.810Z,15.80
2022-10-08T02:14:07.381Z,16.58
2022-10-08T02:16:43.236Z,17.00
2022-10-08T02:19:19.647Z,18.02
2022-10-08T02:21:52.717Z,17.35
2022-10-08T02:24:29.203Z,23.63
2022-10-08T02:27:02.609Z,20.10
2022-10-08T02:29:38.841Z,20.67
2022-10-08T02:32:15.920Z,19.35
2022-10-08T02:34:51.932Z,22.13
2022-10-08T02:37:26.044Z,26.90
2022-10-08T02:40:01.260Z,27.83
2022-10-08T02:42:33.823Z,32.58
2022-10-08T02:45:11.271Z,28.92
2022-10-08T02:50:14.548Z,21.40
2022-10-08T02:52:46.308Z,24.00
2022-10-08T02:55:28.023Z,24.45
2022-10-08T02:58:02.058Z,28.98
2022-10-08T03:00:37.397Z,27.63
2022-10-08T03:03:12.771Z,23.63
2022-10-08T03:05:43.962Z,30.17
2022-10-08T03:08:15.919Z,31.00
2022-10-08T03:10:45.828Z,25.88
2022-10-08T03:13:15.976Z,28.77
2022-10-08T03:15:48.709Z,31.90
2022-10-08T03:18:19.550Z,31.23
2022-10-08T03:20:51.952Z,28.65
2022-10-08T03:23:21.358Z,28.63
2022-10-08T03:25:50.351Z,33.88
2022-10-08T03:28:19.410Z,29.98
2022-10-08T03:30:49.959Z,27.38
2022-10-08T03:33:19.183Z,24.88
2022-10-08T03:35:48.549Z,23.77
2022-10-08T03:38:17.754Z,23.10
2022-10-08T03:40:56.491Z,20.15
2022-10-08T03:43:26.181Z,21.42
2022-10-08T03:45:56.663Z,22.67
2022-10-08T03:48:25.670Z,20.98
2022-10-08T03:50:56.625Z,21.92
2022-10-08T03:53:27.453Z,20.50
2022-10-08T03:55:56.555Z,20.52
2022-10-08T03:58:25.572Z,22.42
2022-10-08T04:01:00.759Z,21.25
2022-10-08T04:03:31.088Z,21.77
2022-10-08T04:06:00.817Z,21.60
2022-10-08T04:08:30.388Z,28.83
2022-10-08T04:10:59.371Z,24.15
2022-10-08T04:13:28.398Z,28.85
2022-10-08T04:16:03.556Z,31.02
2022-10-08T04:18:33.579Z,27.02
2022-10-08T04:21:05.144Z,24.75
2022-10-08T04:23:37.422Z,25.85
2022-10-08T04:26:07.462Z,26.50
2022-10-08T04:28:38.893Z,23.38
2022-10-08T04:31:13.405Z,23.52
2022-10-08T04:33:42.397Z,23.88
2022-10-08T04:36:13.976Z,24.88
2022-10-08T04:38:43.825Z,24.13
2022-10-08T04:41:15.245Z,24.90
2022-10-08T04:43:46.264Z,23.50
2022-10-08T04:46:19.078Z,26.17
2022-10-08T04:48:50.437Z,24.20
2022-10-08T04:51:20.772Z,25.10
2022-10-08T04:53:50.141Z,26.30
2022-10-08T04:56:22.181Z,25.60
2022-10-08T04:58:52.069Z,25.30
2022-10-08T05:01:23.216Z,25.20
2022-10-08T05:03:55.048Z,24.60
2022-10-08T05:06:27.109Z,27.65
2022-10-08T05:08:57.071Z,25.95
2022-10-08T05:11:27.708Z,26.20
2022-10-08T05:13:59.221Z,29.35
2022-10-08T05:16:29.965Z,25.73
2022-10-08T05:18:59.300Z,31.27
2022-10-08T05:21:31.140Z,28.95
2022-10-08T05:24:02.816Z,34.55
2022-10-08T05:26:56.786Z,29.38
2022-10-08T05:29:24.298Z,28.02
2022-10-08T05:31:54.743Z,26.90
2022-10-08T05:34:24.218Z,27.95
2022-10-08T05:36:53.484Z,25.48
2022-10-08T05:39:22.524Z,25.15
2022-10-08T05:41:51.813Z,26.05
2022-10-08T05:44:20.907Z,29.08
2022-10-08T05:46:49.964Z,26.48
2022-10-08T05:49:23.481Z,25.25
2022-10-08T05:51:52.924Z,27.92
2022-10-08T05:54:22.061Z,29.00
2022-10-08T05:56:51.408Z,26.73
2022-10-08T05:59:24.414Z,24.55
2022-10-08T06:01:53.532Z,26.33
2022-10-08T06:04:24.222Z,24.92
2022-10-08T06:06:53.452Z,24.65
2022-10-08T06:09:22.698Z,23.80
2022-10-08T06:11:51.996Z,24.50
2022-10-08T06:14:21.400Z,23.27
2022-10-08T06:16:53.144Z,22.50
2022-10-08T06:19:23.716Z,21.90
2022-10-08T06:21:52.761Z,23.17
2022-10-08T06:24:21.749Z,23.80
2022-10-08T06:26:50.828Z,25.92
2022-10-08T06:29:20.224Z,23.88
2022-10-08T06:31:49.935Z,25.73
2022-10-08T06:34:19.123Z,25.77
2022-10-08T06:36:49.701Z,26.80
2022-10-08T06:39:19.640Z,28.25
2022-10-08T06:41:48.901Z,26.77
2022-10-08T06:44:19.215Z,25.95
2022-10-08T06:46:48.433Z,24.90
2022-10-08T06:49:18.380Z,26.02
2022-10-08T06:51:47.468Z,27.13
2022-10-08T06:54:17.848Z,23.45
2022-10-08T06:56:47.046Z,25.85
2022-10-08T06:59:16.092Z,25.35
2022-10-08T07:01:45.411Z,23.67
2022-10-08T07:04:14.529Z,20.98
2022-10-08T07:06:43.652Z,20.08
2022-10-08T07:09:13.583Z,19.55
2022-10-08T07:11:44.107Z,18.80
2022-10-08T07:14:13.248Z,19.88
2022-10-08T07:16:42.395Z,18.00
2022-10-08T07:19:11.607Z,18.40
2022-10-08T07:21:41.753Z,18.58
2022-10-08T07:24:11.248Z,17.75
2022-10-08T07:26:40.308Z,17.85
2022-10-08T07:29:16.226Z,19.08
2022-10-08T07:31:45.507Z,17.58
2022-10-08T07:34:15.172Z,19.58
2022-10-08T07:36:46.250Z,21.27
2022-10-08T07:39:19.838Z,21.02
2022-10-08T07:41:50.555Z,20.73
2022-10-08T07:44:22.392Z,21.08
2022-10-08T07:46:53.466Z,19.98
2022-10-08T07:49:22.782Z,18.10
2022-10-08T07:51:53.057Z,19.25
2022-10-08T07:54:22.656Z,19.02
2022-10-08T07:56:52.021Z,19.50
2022-10-08T07:59:22.504Z,19.05
2022-10-08T08:02:00.672Z,19.15
2022-10-08T08:04:30.205Z,18.85
2022-10-08T08:06:59.293Z,19.88
2022-10-08T08:09:31.400Z,18.85
2022-10-08T08:12:00.444Z,20.73
2022-10-08T08:14:30.940Z,18.60
2022-10-08T08:17:00.114Z,18.00
2022-10-08T08:19:29.374Z,18.20
2022-10-08T08:21:58.485Z,16.30
2022-10-08T08:24:30.462Z,18.48
2022-10-08T08:26:59.524Z,17.27
2022-10-08T08:29:31.525Z,17.73
2022-10-08T08:32:00.568Z,20.50
2022-10-08T08:34:33.544Z,17.20
2022-10-08T08:37:02.778Z,19.05
2022-10-08T08:39:33.064Z,18.85
2022-10-08T08:42:46.362Z,20.88
2022-10-08T08:45:46.966Z,19.27
2022-10-08T08:48:23.074Z,21.02
2022-10-08T08:53:30.280Z,20.77
2022-10-08T08:56:04.328Z,20.77
2022-10-08T08:58:42.804Z,20.92
2022-10-08T09:01:25.930Z,19.00
2022-10-08T09:03:58.824Z,20.73
2022-10-08T09:06:29.379Z,21.23
2022-10-08T09:09:04.221Z,22.02
2022-10-08T09:11:33.651Z,22.42
2022-10-08T09:14:17.595Z,22.67
2022-10-08T09:16:50.002Z,20.75
2022-10-08T09:19:19.051Z,22.80
2022-10-08T09:21:48.420Z,21.80
2022-10-08T09:24:18.535Z,21.17
2022-10-08T09:26:48.070Z,21.20
2022-10-08T09:29:34.957Z,21.20
2022-10-08T09:32:05.705Z,20.40
2022-10-08T09:34:35.389Z,21.65
2022-10-08T09:37:07.169Z,21.88
2022-10-08T09:39:38.616Z,22.25
2022-10-08T09:42:17.319Z,21.25
2022-10-08T09:44:51.254Z,21.77
2022-10-08T09:47:23.754Z,19.73
2022-10-08T09:50:05.902Z,21.42
2022-10-08T09:52:37.877Z,22.00
2022-10-08T09:55:12.037Z,22.65
2022-10-08T09:57:46.835Z,21.15
2022-10-08T10:00:29.882Z,22.77
2022-10-08T10:03:01.547Z,22.90
2022-10-08T10:05:33.308Z,21.80
2022-10-08T10:08:02.677Z,22.23
2022-10-08T10:10:38.613Z,22.17
2022-10-08T10:13:13.216Z,22.95
2022-10-08T10:15:47.999Z,22.35
2022-10-08T10:18:22.222Z,23.27
2022-10-08T10:20:58.577Z,23.63
2022-10-08T10:23:37.726Z,23.38
2022-10-08T10:26:13.821Z,23.58
2022-10-08T10:28:48.612Z,23.25
2022-10-08T10:31:23.545Z,23.45
2022-10-08T10:33:59.863Z,22.85
2022-10-08T10:36:38.782Z,23.40
2022-10-08T10:39:22.075Z,22.98
2022-10-08T10:42:03.446Z,21.80
2022-10-08T10:44:42.982Z,22.55
2022-10-08T10:47:13.211Z,24.40
2022-10-08T10:49:46.881Z,23.55
2022-10-08T10:52:46.317Z,22.73
2022-10-08T10:55:36.617Z,20.70
2022-10-08T10:58:37.814Z,21.25
2022-10-08T11:01:22.910Z,20.45
2022-10-08T11:04:05.276Z,19.90
2022-10-08T11:07:00.547Z,20.17
2022-10-08T11:09:45.025Z,20.38
2022-10-08T11:12:32.602Z,22.00
2022-10-08T11:15:19.538Z,23.10
2022-10-08T11:18:08.049Z,22.63
2022-10-08T11:20:53.298Z,24.20
2022-10-08T11:23:49.833Z,23.70
2022-10-08T11:26:29.841Z,25.20
2022-10-08T11:29:09.835Z,24.80
2022-10-08T11:31:43.805Z,23.33
2022-10-08T11:34:24.709Z,22.08
2022-10-08T11:37:17.582Z,20.90
2022-10-08T11:40:02.559Z,21.05
2022-10-08T11:42:45.044Z,22.15
2022-10-08T11:45:33.732Z,22.52
2022-10-08T11:48:23.521Z,22.10
2022-10-08T11:50:52.960Z,22.77
2022-10-08T11:53:26.611Z,22.02
2022-10-08T11:56:00.227Z,23.63
2022-10-08T11:58:33.137Z,21.80
2022-10-08T12:01:07.978Z,21.70
2022-10-08T12:03:41.073Z,20.13
2022-10-08T12:06:20.421Z,19.70
2022-10-08T12:08:53.862Z,22.23
2022-10-08T12:11:52.752Z,21.92
2022-10-08T12:14:32.932Z,20.60
2022-10-08T12:17:12.644Z,20.77
2022-10-08T12:20:23.881Z,21.58
2022-10-08T12:23:08.069Z,21.30
2022-10-08T12:25:44.436Z,19.88
2022-10-08T12:28:51.380Z,19.77
2022-10-08T12:31:39.568Z,19.33
2022-10-08T12:34:20.340Z,19.30
2022-10-08T12:37:05.716Z,18.30
2022-10-08T12:39:41.604Z,17.10
2022-10-08T12:42:20.449Z,15.57
2022-10-08T12:45:08.111Z,16.20
2022-10-08T12:47:48.863Z,16.13
2022-10-08T12:50:38.079Z,15.57
2022-10-08T12:53:08.891Z,15.07
2022-10-08T12:55:48.565Z,15.45
2022-10-08T12:58:21.464Z,13.68
2022-10-08T13:00:58.738Z,12.73
2022-10-08T13:05:57.751Z,11.90
2022-10-08T13:08:34.925Z,12.57
2022-10-08T13:11:07.042Z,11.10
2022-10-08T13:13:45.016Z,11.45
2022-10-08T13:16:18.338Z,10.95
2022-10-08T13:18:50.448Z,10.25
2022-10-08T13:21:54.885Z,12.55
2022-10-08T13:24:47.973Z,11.88
2022-10-08T13:27:26.235Z,10.48
2022-10-08T13:29:55.582Z,11.05
2022-10-08T13:32:29.583Z,9.48
2022-10-08T13:35:01.428Z,10.82
2022-10-08T13:37:34.874Z,10.05
2022-10-08T13:40:18.129Z,10.43
2022-10-08T13:42:50.897Z,10.00
2022-10-08T13:45:25.169Z,9.38
2022-10-08T13:47:56.644Z,9.93
2022-10-08T13:50:25.850Z,11.00
2022-10-08T13:52:58.303Z,11.52
2022-10-08T13:55:29.743Z,10.93
2022-10-08T13:58:04.250Z,11.02
2022-10-08T14:00:36.824Z,10.32
2022-10-08T14:03:09.316Z,11.55
2022-10-08T14:05:42.615Z,10.63
2022-10-08T14:08:20.586Z,10.52
2022-10-08T14:10:49.731Z,9.57
2022-10-08T14:13:18.815Z,10.32
2022-10-08T14:15:47.961Z,9.30
2022-10-08T14:18:19.878Z,9.85
2022-10-08T14:20:51.181Z,10.20
2022-10-08T14:23:20.373Z,9.23
2022-10-08T14:25:49.652Z,10.18
2022-10-08T14:28:18.993Z,9.20
2022-10-08T14:30:48.237Z,10.13
2022-10-08T14:33:17.347Z,9.93
2022-10-08T14:35:56.565Z,9.52
2022-10-08T14:38:25.958Z,9.10
2022-10-08T14:40:55.113Z,8.60
2022-10-08T14:43:27.553Z,8.40
2022-10-08T14:45:56.943Z,8.02
2022-10-08T14:48:26.066Z,8.68
2022-10-08T14:50:58.694Z,8.63
2022-10-08T14:53:27.950Z,8.45
2022-10-08T14:56:11.401Z,8.00
2022-10-08T14:58:41.718Z,8.23
2022-10-08T15:01:10.950Z,7.85
2022-10-08T15:03:40.076Z,8.20
2022-10-08T15:06:12.641Z,7.45
2022-10-08T15:08:44.783Z,8.38
2022-10-08T15:11:14.013Z,8.35
2022-10-08T15:13:43.089Z,9.35
2022-10-08T15:16:13.261Z,8.23
2022-10-08T15:18:44.230Z,7.82
2022-10-08T15:21:14.680Z,8.43
2022-10-08T15:23:43.786Z,8.38
2022-10-08T15:26:15.767Z,8.65
2022-10-08T15:28:51.070Z,9.48
2022-10-08T15:31:23.788Z,9.48
2022-10-08T15:33:54.849Z,10.38
2022-10-08T15:36:30.501Z,10.82
2022-10-08T15:39:04.249Z,11.10
2022-10-08T15:41:37.944Z,11.57
2022-10-08T15:44:14.707Z,12.02
2022-10-08T15:46:43.791Z,12.35
2022-10-08T15:49:13.601Z,13.38
2022-10-08T15:51:44.266Z,13.95
2022-10-08T15:54:13.304Z,11.40
2022-10-08T15:56:42.314Z,9.20
2022-10-08T15:59:11.489Z,8.38
2022-10-08T16:01:40.600Z,9.50
2022-10-08T16:04:13.700Z,10.00
2022-10-08T16:06:45.495Z,9.32
2022-10-08T16:09:16.024Z,10.05
2022-10-08T16:11:46.338Z,8.77
2022-10-08T16:14:18.087Z,8.57
2022-10-08T16:16:48.068Z,8.27
2022-10-08T16:19:19.563Z,9.43
2022-10-08T16:21:57.905Z,9.52
2022-10-08T16:24:27.676Z,9.73
2022-10-08T16:26:56.776Z,9.60
2022-10-08T16:29:25.890Z,9.50
2022-10-08T16:31:55.321Z,9.18
2022-10-08T16:34:27.117Z,10.85
2022-10-08T16:37:00.447Z,11.32
2022-10-08T16:39:29.779Z,10.15
2022-10-08T16:41:58.966Z,10.50
2022-10-08T16:44:28.244Z,9.85
2022-10-08T16:46:57.348Z,10.48
2022-10-08T16:49:28.428Z,11.85
2022-10-08T16:52:05.239Z,11.82
2022-10-08T16:54:58.187Z,12.40
2022-10-08T16:57:28.461Z,15.25
2022-10-08T17:00:00.155Z,14.27
2022-10-08T17:02:31.564Z,13.60
2022-10-08T17:05:01.839Z,12.13
2022-10-08T17:07:34.677Z,13.40
2022-10-08T17:10:17.398Z,14.02
2022-10-08T17:12:47.075Z,12.38
2022-10-08T17:15:16.980Z,13.35
2022-10-08T17:17:50.882Z,11.57
2022-10-08T17:20:22.435Z,10.30
2022-10-08T17:22:53.607Z,10.80
2022-10-08T17:25:22.810Z,10.90
2022-10-08T17:28:14.265Z,11.15
2022-10-08T17:30:44.142Z,11.57
2022-10-08T17:34:10.261Z,11.57
2022-10-08T17:36:55.023Z,12.18
2022-10-08T17:39:26.882Z,13.63
2022-10-08T17:41:57.229Z,16.25
2022-10-08T17:44:27.382Z,15.82
2022-10-08T17:46:58.016Z,15.40
2022-10-08T17:49:28.299Z,14.32
2022-10-08T17:51:57.360Z,16.75
2022-10-08T17:54:27.853Z,16.98
2022-10-08T17:56:56.954Z,16.65
2022-10-08T17:59:26.010Z,17.45
2022-10-08T18:01:55.674Z,18.58
2022-10-08T18:04:24.857Z,18.63
2022-10-08T18:06:58.686Z,17.45
2022-10-08T18:09:33.326Z,18.15
2022-10-08T18:12:03.838Z,20.40
2022-10-08T18:14:34.325Z,20.13
2022-10-08T18:17:25.966Z,22.85
2022-10-08T18:21:20.206Z,20.80
2022-10-08T18:28:45.452Z,18.70
2022-10-08T18:31:16.581Z,20.98
2022-10-08T18:33:48.396Z,22.27
2022-10-08T18:36:19.774Z,21.98
2022-10-08T18:38:54.452Z,22.90
2022-10-08T18:41:27.336Z,20.05
2022-10-08T18:43:59.275Z,19.63
2022-10-08T18:46:29.538Z,16.80
2022-10-08T18:48:58.751Z,14.88
2022-10-08T18:51:29.777Z,15.48
2022-10-08T18:54:02.043Z,15.93
2022-10-08T18:56:35.716Z,16.73
2022-10-08T18:59:08.773Z,14.70
2022-10-08T19:01:40.112Z,16.27
2022-10-08T19:04:13.544Z,17.02
2022-10-08T19:06:44.154Z,17.52
2022-10-08T19:09:13.985Z,18.65
2022-10-08T19:11:45.359Z,17.88
2022-10-08T19:14:18.456Z,18.10
2022-10-08T19:16:48.867Z,17.63
2022-10-08T19:19:20.325Z,18.27
2022-10-08T19:21:50.617Z,21.30
2022-10-08T19:24:23.836Z,20.77
2022-10-08T19:26:54.245Z,20.05
2022-10-08T19:29:28.965Z,22.13
2022-10-08T19:31:58.216Z,21.02
2022-10-08T19:34:28.916Z,19.15
2022-10-08T19:36:58.277Z,18.27
2022-10-08T19:39:30.292Z,17.45
2022-10-08T19:41:59.905Z,19.23
2022-10-08T19:44:31.229Z,19.17
2022-10-08T19:47:00.541Z,19.80
2022-10-08T19:49:29.808Z,19.27
2022-10-08T19:51:58.885Z,15.57
2022-10-08T19:54:28.519Z,13.13
2022-10-08T19:56:57.555Z,14.35
2022-10-08T19:59:26.682Z,13.20
2022-10-08T20:01:57.913Z,17.02
2022-10-08T20:04:27.105Z,17.77
2022-10-08T20:06:56.905Z,18.90
2022-10-08T20:09:27.469Z,17.92
2022-10-08T20:11:56.811Z,20.92
2022-10-08T20:14:25.884Z,23.33
2022-10-08T20:16:56.645Z,24.77
2022-10-08T20:19:26.008Z,21.90
2022-10-08T20:21:56.153Z,22.85
2022-10-08T20:24:25.233Z,19.48
2022-10-08T20:26:54.277Z,20.83
2022-10-08T20:29:28.676Z,22.05
2022-10-08T20:32:01.264Z,20.67
2022-10-08T20:34:31.765Z,24.98
2022-10-08T20:37:02.538Z,26.98
2022-10-08T20:39:31.809Z,28.17
2022-10-08T20:42:01.797Z,27.67
2022-10-08T20:44:31.424Z,27.77
2022-10-08T20:47:02.128Z,29.05
2022-10-08T20:49:36.033Z,26.15
2022-10-08T20:52:07.341Z,23.58
2022-10-08T20:54:37.073Z,21.48
2022-10-08T20:57:06.253Z,20.65
2022-10-08T20:59:35.387Z,19.92
2022-10-08T21:02:06.618Z,19.60
2022-10-08T21:04:35.749Z,17.40
2022-10-08T21:07:04.792Z,17.30
2022-10-08T21:09:33.997Z,18.10
2022-10-08T21:12:03.022Z,18.58
2022-10-08T21:14:32.490Z,17.40
2022-10-08T21:17:01.497Z,20.85
2022-10-08T21:19:31.928Z,21.08
2022-10-08T21:22:01.090Z,20.58
2022-10-08T21:24:30.227Z,19.23
2022-10-08T21:26:59.260Z,20.00
2022-10-08T21:29:28.390Z,20.45
2022-10-08T21:31:57.493Z,19.85
2022-10-08T21:34:26.568Z,23.33
2022-10-08T21:36:56.981Z,23.05
2022-10-08T21:39:26.045Z,20.63
2022-10-08T21:41:55.049Z,25.42
2022-10-08T21:44:24.432Z,22.33
2022-10-08T21:46:53.470Z,19.88
2022-10-08T21:49:22.501Z,20.70
2022-10-08T21:51:52.367Z,20.08
2022-10-08T21:54:22.818Z,21.23
2022-10-08T21:56:52.006Z,20.55
2022-10-08T21:59:21.020Z,20.60
2022-10-08T22:01:51.706Z,19.55
2022-10-08T22:04:22.887Z,19.10
2022-10-08T22:06:54.705Z,17.92
2022-10-08T22:09:27.703Z,17.50
2022-10-08T22:11:58.318Z,16.25
2022-10-08T22:14:27.959Z,19.85
2022-10-08T22:16:57.092Z,20.50
2022-10-08T22:19:26.164Z,17.17
2022-10-08T22:21:55.232Z,18.08
2022-10-08T22:24:25.779Z,17.60
2022-10-08T22:26:54.853Z,17.40
2022-10-08T22:29:23.974Z,19.65
2022-10-08T22:31:55.014Z,19.88
2022-10-08T22:34:24.069Z,22.38
2022-10-08T22:36:53.145Z,22.33
2022-10-08T22:39:22.379Z,21.80
2022-10-08T22:41:52.744Z,20.25
2022-10-08T22:44:22.142Z,21.48
2022-10-08T22:46:51.317Z,22.73
2022-10-08T22:49:20.283Z,21.73
2022-10-08T22:51:49.390Z,21.23
2022-10-08T22:54:18.498Z,20.90
2022-10-08T22:56:47.508Z,23.35
2022-10-08T22:59:18.073Z,24.50
2022-10-08T23:01:47.185Z,25.42
2022-10-08T23:04:16.210Z,22.33
2022-10-08T23:06:45.209Z,21.27
2022-10-08T23:09:14.509Z,21.98
2022-10-08T23:11:43.506Z,24.67
2022-10-08T23:14:12.563Z,24.35
2022-10-08T23:16:42.948Z,23.83
2022-10-08T23:19:13.009Z,21.83
2022-10-08T23:21:44.360Z,21.58
2022-10-08T23:24:13.651Z,20.98
2022-10-08T23:26:42.731Z,19.88
2022-10-08T23:29:12.745Z,21.30
2022-10-08T23:31:43.385Z,21.08
2022-10-08T23:34:12.429Z,22.80
2022-10-08T23:36:44.081Z,20.35
2022-10-08T23:39:16.614Z,24.25
2022-10-08T23:41:45.659Z,22.92
2022-10-08T23:44:14.810Z,25.27
2022-10-08T23:46:45.212Z,23.77
2022-10-08T23:49:14.239Z,23.50
2022-10-08T23:51:43.327Z,21.50
2022-10-08T23:54:12.353Z,22.17
2022-10-08T23:56:41.381Z,21.73
2022-10-08T23:59:10.508Z,22.77
